createdAt,value
2017-11-16T00:01:58.851Z,24.00
2017-11-16T00:04:26.350Z,22.83
2017-11-16T00:06:53.881Z,24.90
2017-11-16T00:09:21.831Z,23.30
2017-11-16T00:11:49.398Z,22.37
2017-11-16T00:14:17.358Z,22.87
2017-11-16T00:16:44.892Z,23.43
2017-11-16T00:19:13.325Z,23.63
2017-11-16T00:21:40.828Z,22.97
2017-11-16T00:24:09.106Z,22.50
2017-11-16T00:26:37.730Z,22.97
2017-11-16T00:29:05.247Z,21.10
2017-11-16T00:31:33.529Z,22.90
2017-11-16T00:34:01.046Z,21.87
2017-11-16T00:36:29.538Z,22.43
2017-11-16T00:38:57.902Z,21.10
2017-11-16T00:41:25.437Z,21.53
2017-11-16T00:43:53.535Z,20.30
2017-11-16T00:46:21.265Z,23.07
2017-11-16T00:48:49.662Z,22.50
2017-11-16T00:51:17.212Z,22.03
2017-11-16T00:53:44.794Z,23.10
2017-11-16T00:56:12.381Z,22.17
2017-11-16T00:58:41.424Z,22.30
2017-11-16T01:01:09.085Z,20.83
2017-11-16T01:03:37.360Z,19.87
2017-11-16T01:06:04.926Z,20.43
2017-11-16T01:08:33.310Z,21.70
2017-11-16T01:11:02.009Z,21.13
2017-11-16T01:13:30.244Z,22.00
2017-11-16T01:15:58.674Z,21.80
2017-11-16T01:18:27.986Z,21.63
2017-11-16T01:20:55.530Z,22.37
2017-11-16T01:23:23.124Z,21.03
2017-11-16T01:25:51.479Z,20.80
2017-11-16T01:28:19.004Z,21.30
2017-11-16T01:30:46.518Z,21.73
2017-11-16T01:33:14.119Z,21.33
2017-11-16T01:35:43.461Z,21.17
2017-11-16T01:38:11.013Z,25.07
2017-11-16T01:40:39.217Z,27.20
2017-11-16T01:43:07.529Z,25.40
2017-11-16T01:45:35.077Z,23.37
2017-11-16T01:48:03.359Z,23.23
2017-11-16T01:50:30.912Z,22.53
2017-11-16T01:52:58.436Z,22.23
2017-11-16T01:55:26.738Z,22.70
2017-11-16T01:57:54.573Z,24.27
2017-11-16T02:00:22.983Z,23.03
2017-11-16T02:02:54.509Z,24.70
2017-11-16T02:05:22.061Z,24.47
2017-11-16T02:07:49.566Z,22.30
2017-11-16T02:10:17.610Z,23.60
2017-11-16T02:12:46.113Z,23.53
2017-11-16T02:15:13.617Z,25.13
2017-11-16T02:17:41.217Z,23.63
2017-11-16T02:20:09.642Z,21.93
2017-11-16T02:22:37.935Z,23.10
2017-11-16T02:25:06.529Z,22.00
2017-11-16T02:27:35.308Z,23.20
2017-11-16T02:30:02.817Z,24.90
2017-11-16T02:32:30.408Z,23.73
2017-11-16T02:34:57.959Z,24.43
2017-11-16T02:37:25.525Z,27.07
2017-11-16T02:39:53.110Z,25.43
2017-11-16T02:42:20.780Z,25.10
2017-11-16T02:44:48.369Z,28.17
2017-11-16T02:47:16.847Z,29.10
2017-11-16T02:49:45.114Z,27.33
2017-11-16T02:52:13.366Z,26.80
2017-11-16T02:54:41.694Z,25.93
2017-11-16T02:57:10.024Z,28.00
2017-11-16T02:59:37.965Z,27.00
2017-11-16T03:02:06.069Z,26.33
2017-11-16T03:04:34.422Z,26.20
2017-11-16T03:07:02.022Z,26.70
2017-11-16T03:09:29.543Z,26.43
2017-11-16T03:11:57.676Z,24.60
2017-11-16T03:14:25.352Z,26.03
2017-11-16T03:16:52.886Z,24.90
2017-11-16T03:19:21.927Z,24.50
2017-11-16T03:21:50.144Z,27.10
2017-11-16T03:24:17.681Z,24.70
2017-11-16T03:26:45.209Z,24.67
2017-11-16T03:29:12.794Z,26.33
2017-11-16T03:31:40.353Z,26.03
2017-11-16T03:34:08.775Z,25.97
2017-11-16T03:36:36.333Z,24.77
2017-11-16T03:39:04.668Z,27.33
2017-11-16T03:41:32.241Z,24.90
2017-11-16T03:43:59.822Z,25.10
2017-11-16T03:46:28.335Z,25.17
2017-11-16T03:48:55.861Z,25.80
2017-11-16T03:51:23.373Z,26.30
2017-11-16T03:53:50.878Z,25.53
2017-11-16T03:56:19.233Z,25.53
2017-11-16T03:58:47.583Z,23.17
2017-11-16T04:01:15.101Z,25.27
2017-11-16T04:03:44.034Z,25.77
2017-11-16T04:06:11.577Z,23.50
2017-11-16T04:08:39.810Z,24.47
2017-11-16T04:11:08.224Z,26.87
2017-11-16T04:13:35.768Z,24.40
2017-11-16T04:16:04.075Z,25.07
2017-11-16T04:18:31.849Z,24.70
2017-11-16T04:21:00.263Z,25.23
2017-11-16T04:23:28.585Z,24.37
2017-11-16T04:25:56.131Z,24.20
2017-11-16T04:28:24.414Z,27.47
2017-11-16T04:30:52.111Z,25.33
2017-11-16T04:33:19.657Z,23.53
2017-11-16T04:35:47.180Z,25.53
2017-11-16T04:38:16.645Z,25.07
2017-11-16T04:40:44.250Z,25.27
2017-11-16T04:43:12.520Z,25.00
2017-11-16T04:45:40.067Z,25.67
2017-11-16T04:48:07.628Z,26.77
2017-11-16T04:50:35.179Z,28.23
2017-11-16T04:53:02.795Z,29.37
2017-11-16T04:55:30.788Z,29.27
2017-11-16T04:57:59.218Z,31.53
2017-11-16T05:00:28.306Z,31.33
2017-11-16T05:02:56.630Z,30.10
2017-11-16T05:05:24.179Z,33.00
2017-11-16T05:07:52.455Z,33.40
2017-11-16T05:10:21.139Z,31.60
2017-11-16T05:12:50.528Z,32.07
2017-11-16T05:15:18.074Z,32.27
2017-11-16T05:17:46.339Z,31.60
2017-11-16T05:20:13.877Z,32.60
2017-11-16T05:22:41.430Z,30.60
2017-11-16T05:25:09.016Z,32.20
2017-11-16T05:27:37.240Z,32.43
2017-11-16T05:30:06.652Z,35.50
2017-11-16T05:32:35.564Z,34.77
2017-11-16T05:35:03.135Z,36.70
2017-11-16T05:37:30.656Z,36.33
2017-11-16T05:39:59.971Z,38.60
2017-11-16T05:42:28.293Z,37.50
2017-11-16T05:44:55.817Z,38.13
2017-11-16T05:47:23.427Z,35.70
2017-11-16T05:49:51.661Z,36.27
2017-11-16T05:52:19.175Z,38.77
2017-11-16T05:54:46.693Z,39.10
2017-11-16T05:57:14.960Z,40.17
2017-11-16T05:59:42.503Z,41.70
2017-11-16T06:02:10.052Z,40.63
2017-11-16T06:04:37.545Z,40.40
2017-11-16T06:07:05.170Z,40.80
2017-11-16T06:09:32.679Z,41.23
2017-11-16T06:12:00.226Z,42.87
2017-11-16T06:14:28.662Z,40.87
2017-11-16T06:16:57.222Z,40.70
2017-11-16T06:19:25.281Z,40.90
2017-11-16T06:21:56.838Z,38.60
2017-11-16T06:24:25.626Z,40.10
2017-11-16T06:26:53.149Z,41.20
2017-11-16T06:29:22.779Z,41.60
2017-11-16T06:31:50.506Z,40.53
2017-11-16T06:34:18.073Z,42.67
2017-11-16T06:36:45.615Z,40.90
2017-11-16T06:39:13.118Z,40.87
2017-11-16T06:41:40.665Z,40.10
2017-11-16T06:44:08.183Z,43.27
2017-11-16T06:46:35.710Z,41.20
2017-11-16T06:49:03.990Z,39.80
2017-11-16T06:51:32.270Z,41.40
2017-11-16T06:53:59.831Z,40.70
2017-11-16T06:56:28.158Z,43.07
2017-11-16T06:58:55.640Z,43.40
2017-11-16T07:01:24.724Z,40.70
2017-11-16T07:03:52.268Z,42.23
2017-11-16T07:06:19.767Z,42.10
2017-11-16T07:08:47.329Z,40.67
2017-11-16T07:11:15.660Z,43.83
2017-11-16T07:13:43.225Z,43.67
2017-11-16T07:16:10.741Z,41.33
2017-11-16T07:18:38.261Z,42.33
2017-11-16T07:21:05.775Z,43.00
2017-11-16T07:23:33.322Z,43.20
2017-11-16T07:26:00.999Z,43.27
2017-11-16T07:28:28.517Z,41.77
2017-11-16T07:30:56.845Z,39.80
2017-11-16T07:33:24.402Z,42.53
2017-11-16T07:35:51.930Z,41.10
2017-11-16T07:38:19.460Z,42.03
2017-11-16T07:40:49.873Z,36.23
2017-11-16T07:43:17.656Z,39.77
2017-11-16T07:45:45.172Z,38.47
2017-11-16T07:48:12.689Z,39.10
2017-11-16T07:50:40.987Z,37.50
2017-11-16T07:53:10.709Z,39.50
2017-11-16T07:55:38.874Z,40.90
2017-11-16T07:58:07.443Z,43.77
2017-11-16T08:00:34.988Z,42.13
2017-11-16T08:03:03.519Z,41.60
2017-11-16T08:05:31.040Z,47.43
2017-11-16T08:08:00.120Z,41.70
2017-11-16T08:10:28.464Z,42.80
2017-11-16T08:12:55.986Z,44.80
2017-11-16T08:15:23.517Z,39.30
2017-11-16T08:17:51.557Z,37.47
2017-11-16T08:20:19.729Z,38.13
2017-11-16T08:22:47.845Z,36.33
2017-11-16T08:25:15.383Z,39.20
2017-11-16T08:27:43.265Z,37.40
2017-11-16T08:30:10.776Z,37.87
2017-11-16T08:32:38.289Z,40.20
2017-11-16T08:35:07.157Z,38.47
2017-11-16T08:37:34.677Z,40.43
2017-11-16T08:40:02.208Z,41.90
2017-11-16T08:42:29.800Z,41.73
2017-11-16T08:44:58.195Z,38.00
2017-11-16T08:47:25.724Z,40.30
2017-11-16T08:49:53.265Z,41.07
2017-11-16T08:52:20.843Z,39.93
2017-11-16T08:54:48.373Z,38.77
2017-11-16T08:57:15.912Z,37.83
2017-11-16T08:59:43.457Z,40.13
2017-11-16T09:02:11.055Z,39.60
2017-11-16T09:04:39.935Z,38.80
2017-11-16T09:07:07.852Z,42.37
2017-11-16T09:09:35.403Z,40.23
2017-11-16T09:12:02.961Z,40.40
2017-11-16T09:14:30.590Z,41.50
2017-11-16T09:16:58.866Z,43.60
2017-11-16T09:19:27.204Z,40.27
2017-11-16T09:21:54.765Z,43.20
2017-11-16T09:24:22.399Z,43.60
2017-11-16T09:26:49.962Z,43.53
2017-11-16T09:29:17.726Z,43.30
2017-11-16T09:31:46.315Z,42.13
2017-11-16T09:34:14.231Z,41.27
2017-11-16T09:42:25.799Z,39.97
2017-11-16T09:44:54.075Z,43.40
2017-11-16T09:47:22.241Z,40.43
2017-11-16T09:49:49.795Z,40.40
2017-11-16T09:52:17.390Z,39.90
2017-11-16T09:54:45.799Z,40.90
2017-11-16T09:57:13.321Z,37.93
2017-11-16T09:59:40.875Z,40.80
2017-11-16T10:02:08.523Z,41.37
2017-11-16T10:04:36.635Z,40.30
2017-11-16T10:07:04.846Z,41.20
2017-11-16T10:09:33.708Z,39.97
2017-11-16T10:12:01.248Z,40.40
2017-11-16T10:14:28.977Z,38.70
2017-11-16T10:16:56.516Z,36.13
2017-11-16T10:19:25.339Z,39.43
2017-11-16T10:21:53.689Z,39.00
2017-11-16T10:24:22.228Z,38.03
2017-11-16T10:26:49.903Z,40.93
2017-11-16T10:29:17.462Z,36.80
2017-11-16T10:31:45.082Z,39.63
2017-11-16T10:34:13.593Z,38.60
2017-11-16T10:36:41.162Z,39.60
2017-11-16T10:39:08.697Z,37.83
2017-11-16T10:41:36.296Z,41.30
2017-11-16T10:44:03.838Z,38.30
2017-11-16T10:46:31.984Z,39.80
2017-11-16T10:48:59.770Z,37.40
2017-11-16T10:51:27.325Z,39.50
2017-11-16T10:53:54.878Z,39.27
2017-11-16T10:56:22.494Z,40.53
2017-11-16T10:58:50.015Z,39.47
2017-11-16T11:01:17.565Z,39.63
2017-11-16T11:03:45.154Z,39.93
2017-11-16T11:06:12.727Z,40.17
2017-11-16T11:08:41.036Z,39.27
2017-11-16T11:11:11.133Z,38.47
2017-11-16T11:13:38.647Z,39.50
2017-11-16T11:16:06.951Z,38.23
2017-11-16T11:18:35.801Z,39.20
2017-11-16T11:21:03.394Z,40.30
2017-11-16T11:23:33.153Z,38.57
2017-11-16T11:26:00.735Z,40.90
2017-11-16T11:28:28.289Z,39.17
2017-11-16T11:33:57.356Z,40.13
2017-11-16T11:36:25.818Z,39.80
2017-11-16T11:38:53.371Z,37.57
2017-11-16T11:41:22.971Z,37.70
2017-11-16T11:43:50.528Z,40.13
2017-11-16T11:46:18.138Z,38.63
2017-11-16T11:48:45.664Z,40.10
2017-11-16T11:51:14.030Z,37.63
2017-11-16T11:53:41.777Z,40.23
2017-11-16T11:56:09.398Z,39.07
2017-11-16T11:58:37.875Z,38.63
2017-11-16T12:01:06.792Z,40.70
2017-11-16T12:03:34.314Z,38.40
2017-11-16T12:06:02.624Z,38.70
2017-11-16T12:08:30.703Z,37.03
2017-11-16T12:10:58.450Z,37.97
2017-11-16T12:13:25.983Z,39.17
2017-11-16T12:15:54.276Z,35.30
2017-11-16T12:18:22.690Z,39.13
2017-11-16T12:20:50.237Z,36.40
2017-11-16T12:23:17.880Z,38.13
2017-11-16T12:25:45.571Z,38.67
2017-11-16T12:28:13.533Z,36.10
2017-11-16T12:30:41.562Z,37.30
2017-11-16T12:33:09.899Z,35.27
2017-11-16T12:35:37.509Z,36.67
2017-11-16T12:38:05.306Z,36.27
2017-11-16T12:40:33.054Z,34.80
2017-11-16T12:43:01.260Z,35.13
2017-11-16T12:45:28.810Z,33.70
2017-11-16T12:47:57.959Z,32.17
2017-11-16T12:50:26.314Z,33.43
2017-11-16T12:52:53.868Z,35.50
2017-11-16T12:55:21.438Z,33.33
2017-11-16T12:57:49.018Z,33.10
2017-11-16T13:00:16.562Z,33.80
2017-11-16T13:02:44.400Z,34.20
2017-11-16T13:05:11.960Z,34.83
2017-11-16T13:07:40.277Z,31.63
2017-11-16T13:10:09.483Z,32.03
2017-11-16T13:12:37.985Z,30.00
2017-11-16T13:15:05.589Z,31.93
2017-11-16T13:17:33.139Z,32.03
2017-11-16T13:20:01.161Z,33.00
2017-11-16T13:22:29.459Z,32.23
2017-11-16T13:24:56.961Z,31.23
2017-11-16T13:27:24.742Z,30.13
2017-11-16T13:29:53.165Z,29.90
2017-11-16T13:32:20.731Z,30.50
2017-11-16T13:34:48.756Z,29.73
2017-11-16T13:37:16.766Z,29.13
2017-11-16T13:39:44.300Z,30.77
2017-11-16T13:42:11.970Z,29.93
2017-11-16T13:44:40.236Z,30.13
2017-11-16T13:47:08.482Z,31.00
2017-11-16T13:49:36.115Z,29.73
2017-11-16T13:52:04.585Z,27.50
2017-11-16T13:54:33.002Z,28.33
2017-11-16T13:57:00.669Z,28.77
2017-11-16T13:59:29.547Z,30.13
2017-11-16T14:01:57.055Z,28.97
2017-11-16T14:04:24.606Z,30.80
2017-11-16T14:06:52.890Z,30.40
2017-11-16T14:09:20.596Z,29.53
2017-11-16T14:11:48.128Z,30.70
2017-11-16T14:14:15.692Z,30.07
2017-11-16T14:16:43.206Z,30.67
2017-11-16T14:19:10.756Z,28.90
2017-11-16T14:21:38.329Z,31.03
2017-11-16T14:24:05.852Z,32.77
2017-11-16T14:26:34.230Z,30.70
2017-11-16T14:29:01.955Z,28.53
2017-11-16T14:31:29.544Z,32.90
2017-11-16T14:33:57.717Z,31.10
2017-11-16T14:36:25.285Z,30.60
2017-11-16T14:38:53.560Z,29.93
2017-11-16T14:41:21.220Z,32.23
2017-11-16T14:43:48.813Z,33.83
2017-11-16T14:46:16.374Z,31.80
2017-11-16T14:48:43.959Z,30.90
2017-11-16T14:51:12.297Z,31.20
2017-11-16T14:53:41.286Z,31.40
2017-11-16T14:56:08.858Z,31.03
2017-11-16T14:58:36.629Z,32.07
2017-11-16T15:01:04.214Z,31.83
2017-11-16T15:03:31.926Z,30.00
2017-11-16T15:05:59.454Z,31.03
2017-11-16T15:08:26.975Z,29.93
2017-11-16T15:10:54.571Z,32.80
2017-11-16T15:13:22.263Z,29.77
2017-11-16T15:15:49.853Z,29.60
2017-11-16T15:18:18.439Z,31.00
2017-11-16T15:20:46.591Z,30.30
2017-11-16T15:23:14.717Z,32.87
2017-11-16T15:25:42.751Z,29.07
2017-11-16T15:28:11.488Z,32.33
2017-11-16T15:30:39.016Z,30.33
2017-11-16T15:33:07.667Z,31.30
2017-11-16T15:35:35.182Z,29.47
2017-11-16T15:38:02.736Z,31.70
2017-11-16T15:40:31.177Z,31.47
2017-11-16T15:43:00.717Z,31.23
2017-11-16T15:45:28.994Z,31.67
2017-11-16T15:47:56.532Z,29.90
2017-11-16T15:50:24.735Z,31.77
2017-11-16T15:52:53.031Z,30.00
2017-11-16T15:55:20.621Z,30.10
2017-11-16T15:57:48.131Z,31.23
2017-11-16T16:00:15.896Z,29.67
2017-11-16T16:02:43.419Z,30.77
2017-11-16T16:05:11.001Z,30.87
2017-11-16T16:07:38.586Z,31.03
2017-11-16T16:10:07.578Z,30.40
2017-11-16T16:12:36.083Z,30.10
2017-11-16T16:15:04.613Z,28.80
2017-11-16T16:17:32.214Z,28.20
2017-11-16T16:19:59.762Z,29.57
2017-11-16T16:22:28.079Z,28.97
2017-11-16T16:24:55.636Z,28.73
2017-11-16T16:27:23.419Z,29.10
2017-11-16T16:29:50.944Z,28.03
2017-11-16T16:32:18.498Z,28.67
2017-11-16T16:34:46.103Z,29.10
2017-11-16T16:37:15.401Z,28.50
2017-11-16T16:39:43.542Z,27.80
2017-11-16T16:42:11.128Z,27.53
2017-11-16T16:44:38.681Z,29.23
2017-11-16T16:47:06.242Z,26.73
2017-11-16T16:49:34.532Z,28.17
2017-11-16T16:52:02.588Z,29.97
2017-11-16T16:54:30.231Z,29.00
2017-11-16T16:56:57.793Z,25.43
2017-11-16T16:59:25.332Z,28.40
2017-11-16T17:01:52.902Z,28.60
2017-11-16T17:04:20.617Z,29.10
2017-11-16T17:06:48.137Z,27.50
2017-11-16T17:09:15.659Z,27.20
2017-11-16T17:11:43.217Z,29.33
2017-11-16T17:14:12.519Z,28.80
2017-11-16T17:16:40.822Z,29.67
2017-11-16T17:19:08.370Z,31.77
2017-11-16T17:21:37.755Z,30.27
2017-11-16T17:24:06.144Z,31.93
2017-11-16T17:26:35.859Z,30.90
2017-11-16T17:29:04.338Z,30.67
2017-11-16T17:31:31.872Z,29.70
2017-11-16T17:34:00.230Z,31.20
2017-11-16T17:36:27.790Z,31.47
2017-11-16T17:38:55.345Z,32.30
2017-11-16T17:41:23.843Z,31.97
2017-11-16T17:43:52.389Z,31.73
2017-11-16T17:46:20.531Z,31.20
2017-11-16T17:48:48.451Z,32.70
2017-11-16T17:51:16.012Z,32.60
2017-11-16T17:53:43.572Z,30.37
2017-11-16T17:56:11.175Z,32.90
2017-11-16T17:58:39.521Z,32.60
2017-11-16T18:01:07.936Z,31.90
2017-11-16T18:03:35.528Z,32.03
2017-11-16T18:06:03.092Z,30.23
2017-11-16T18:08:30.664Z,32.10
2017-11-16T18:10:58.178Z,31.53
2017-11-16T18:13:25.746Z,32.40
2017-11-16T18:15:53.253Z,32.87
2017-11-16T18:18:20.870Z,32.83
2017-11-16T18:20:48.455Z,33.27
2017-11-16T18:23:16.017Z,33.20
2017-11-16T18:25:43.584Z,32.63
2017-11-16T18:28:11.139Z,34.37
2017-11-16T18:30:38.726Z,34.57
2017-11-16T18:33:06.351Z,33.20
2017-11-16T18:35:35.558Z,35.97
2017-11-16T18:38:03.118Z,44.67
2017-11-16T18:40:30.638Z,38.43
2017-11-16T18:43:00.381Z,35.40
2017-11-16T18:45:27.946Z,34.80
2017-11-16T18:47:55.512Z,35.53
2017-11-16T18:50:25.300Z,34.53
2017-11-16T18:52:52.853Z,36.63
2017-11-16T18:55:20.389Z,35.17
2017-11-16T18:57:49.302Z,35.33
2017-11-16T19:00:16.837Z,35.83
2017-11-16T19:02:47.712Z,36.20
2017-11-16T19:05:15.241Z,34.83
2017-11-16T19:07:43.778Z,36.70
2017-11-16T19:10:11.345Z,36.10
2017-11-16T19:12:38.942Z,39.50
2017-11-16T19:15:07.629Z,36.37
2017-11-16T19:17:35.947Z,35.40
2017-11-16T19:20:03.689Z,38.87
2017-11-16T19:22:31.276Z,38.70
2017-11-16T19:24:58.831Z,36.83
2017-11-16T19:27:26.627Z,38.67
2017-11-16T19:29:54.187Z,38.10
2017-11-16T19:32:21.836Z,38.13
2017-11-16T19:34:50.052Z,39.87
2017-11-16T19:37:18.380Z,37.93
2017-11-16T19:39:45.908Z,38.07
2017-11-16T19:42:13.525Z,37.07
2017-11-16T19:44:42.529Z,38.00
2017-11-16T19:47:11.477Z,36.30
2017-11-16T19:49:39.253Z,37.90
2017-11-16T19:52:06.914Z,38.00
2017-11-16T19:54:35.468Z,36.93
2017-11-16T19:57:03.149Z,39.80
2017-11-16T19:59:31.744Z,36.67
2017-11-16T20:01:59.610Z,38.87
2017-11-16T20:04:27.284Z,40.57
2017-11-16T20:06:54.909Z,40.37
2017-11-16T20:09:22.403Z,39.60
2017-11-16T20:11:49.982Z,38.77
2017-11-16T20:14:17.726Z,39.50
2017-11-16T20:16:45.357Z,38.80
2017-11-16T20:19:12.930Z,41.87
2017-11-16T20:21:40.759Z,39.40
2017-11-16T20:24:08.372Z,40.60
2017-11-16T20:26:35.942Z,38.27
2017-11-16T20:29:03.492Z,41.90
2017-11-16T20:31:31.099Z,38.00
2017-11-16T20:33:59.595Z,41.90
2017-11-16T20:36:27.268Z,39.47
2017-11-16T20:42:17.357Z,36.77
2017-11-16T20:44:51.418Z,41.37
2017-11-16T20:47:24.898Z,37.10
2017-11-16T20:49:59.069Z,40.70
2017-11-16T20:52:30.706Z,40.70
2017-11-16T20:54:58.712Z,42.07
2017-11-16T20:57:27.172Z,43.33
2017-11-16T20:59:55.644Z,43.20
2017-11-16T21:02:23.158Z,41.23
2017-11-16T21:04:51.499Z,40.20
2017-11-16T21:07:19.848Z,42.17
2017-11-16T21:09:47.456Z,45.80
2017-11-16T21:12:15.833Z,42.43
2017-11-16T21:14:43.731Z,41.30
2017-11-16T21:17:11.490Z,40.40
2017-11-16T21:19:39.253Z,40.53
2017-11-16T21:22:07.848Z,40.43
2017-11-16T21:24:35.474Z,49.10
2017-11-16T21:27:03.945Z,47.87
2017-11-16T21:29:34.115Z,48.63
2017-11-16T21:32:03.980Z,46.60
2017-11-16T21:34:32.735Z,41.40
2017-11-16T21:37:00.391Z,40.00
2017-11-16T21:39:27.918Z,39.90
2017-11-16T21:41:55.444Z,35.70
2017-11-16T21:44:23.026Z,37.67
2017-11-16T21:46:52.273Z,40.20
2017-11-16T21:49:19.893Z,39.63
2017-11-16T21:51:49.642Z,38.40
2017-11-16T21:54:18.061Z,37.97
2017-11-16T21:56:45.567Z,37.17
2017-11-16T21:59:13.127Z,41.10
2017-11-16T22:01:40.791Z,37.17
2017-11-16T22:04:08.337Z,38.57
2017-11-16T22:06:37.081Z,34.90
2017-11-16T22:09:06.001Z,39.80
2017-11-16T22:11:34.353Z,37.93
2017-11-16T22:14:02.031Z,36.90
2017-11-16T22:16:29.876Z,37.37
2017-11-16T22:18:57.394Z,38.63
2017-11-16T22:21:25.239Z,37.80
2017-11-16T22:23:52.800Z,36.77
2017-11-16T22:26:20.571Z,35.70
2017-11-16T22:28:49.299Z,39.10
2017-11-16T22:31:16.808Z,39.50
2017-11-16T22:33:45.048Z,38.97
2017-11-16T22:36:12.756Z,37.60
2017-11-16T22:38:40.422Z,40.00
2017-11-16T22:41:07.994Z,39.73
2017-11-16T22:43:36.421Z,41.37
2017-11-16T22:46:04.729Z,40.97
2017-11-16T22:48:33.295Z,42.80
2017-11-16T22:51:01.601Z,39.07
2017-11-16T22:53:29.291Z,39.93
2017-11-16T22:55:56.836Z,39.00
2017-11-16T22:58:24.569Z,40.70
2017-11-16T23:00:53.026Z,39.70
2017-11-16T23:03:23.327Z,39.10
2017-11-16T23:05:52.364Z,39.63
2017-11-16T23:08:26.033Z,36.63
2017-11-16T23:10:53.774Z,39.33
2017-11-16T23:13:22.185Z,37.97
2017-11-16T23:15:50.640Z,36.40
2017-11-16T23:18:18.301Z,38.27
2017-11-16T23:20:46.766Z,34.47
2017-11-16T23:23:14.791Z,33.47
2017-11-16T23:25:42.296Z,36.67
2017-11-16T23:28:10.686Z,33.33
2017-11-16T23:30:38.787Z,34.43
2017-11-16T23:33:07.752Z,32.73
2017-11-16T23:35:35.242Z,32.87
2017-11-16T23:38:05.260Z,33.03
2017-11-16T23:40:33.591Z,32.47
2017-11-16T23:43:01.808Z,32.93
2017-11-16T23:45:29.656Z,31.00
2017-11-16T23:47:58.017Z,32.40
2017-11-16T23:50:25.824Z,31.10
2017-11-16T23:52:53.334Z,30.53
2017-11-16T23:55:21.381Z,31.23
2017-11-16T23:57:48.946Z,31.50
